• Join FlightAware (Why Join?)
  • Login
  • US Flag 
07:29AM EST


 

Airport Tracker/Info


-or-


 

Live Flight TrackerFlight Track Log ✈ DAL6055 ✈ 04-Apr-2013 ✈ KSDF - KDTW

Flight Track Log - Related Links

Times and Time Zones

All times are in EDT time to prevent confusion due to time zone crossing. See the DAL6055 flight status page for this flight to view local times or setup timezone preferences in your user account.

Time Position Orientation Groundspeed Altitude Reporting Facility
EDT Latitude Longitude Course Direction KTS MPH feet Rate Location/Type
11:56AM 38.2114 -85.7397 345° North 178 205 2,400  Level FAA TRACON SMA TRACON (SMA)
11:57AM 38.2269 -85.7450 345° North 185 213 3,100 2,760 Climbing FAA TRACON SMA TRACON (SMA)
11:57AM 38.2639 -85.7575 345° North 201 231 5,200 3,060 Climbing FAA TRACON SMA TRACON (SMA)
11:58AM 38.2811 -85.7636 344° North 205 236 6,200 2,400 Climbing FAA TRACON SMA TRACON (SMA)
11:58AM 38.2992 -85.7706 343° North 217 250 6,800 2,700 Climbing FAA TRACON SMA TRACON (SMA)
11:58AM 38.3219 -85.7822 338° Northwest 228 262 8,000 3,300 Climbing FAA TRACON SMA TRACON (SMA)
11:59AM 38.3400 -85.7917 338° Northwest 230 265 9,000 2,880 Climbing FAA TRACON SMA TRACON (SMA)
11:59AM 38.3586 -85.8006 339° North 230 265 9,900 2,580 Climbing FAA TRACON SMA TRACON (SMA)
11:59AM 38.3817 -85.8131 337° Northwest 234 269 10,800 2,220 Climbing FAA TRACON SMA TRACON (SMA)
12:00PM 38.4017 -85.8228 339° North 244 281 11,400 1,620 Climbing FAA TRACON SMA TRACON (SMA)
12:00PM 38.4281 -85.8367 338° Northwest 264 304 11,900 1,620 Climbing FAA TRACON SMA TRACON (SMA)
12:00PM 38.4508 -85.8478 339° North 282 325 12,500 1,980 Climbing FAA TRACON SMA TRACON (SMA)
12:01PM 38.4747 -85.8606 337° Northwest 295 339 13,200 2,340 Climbing FAA TRACON SMA TRACON (SMA)
12:01PM 38.5044 -85.8750 339° North 300 345 14,100 2,520 Climbing FAA TRACON SMA TRACON (SMA)
12:01PM 38.5283 -85.8878 337° Northwest 302 348 14,900 2,100 Climbing FAA TRACON SMA TRACON (SMA)
12:02PM 38.5531 -85.8994 340° North 306 352 15,500 1,800 Climbing FAA TRACON SMA TRACON (SMA)
12:02PM 38.5778 -85.9125 338° Northwest 310 357 16,100 2,100 Climbing FAA TRACON SMA TRACON (SMA)
12:02PM 38.6092 -85.9289 338° Northwest 318 366 16,900 2,160 Climbing FAA TRACON SMA TRACON (SMA)
12:03PM 38.6350 -85.9419 338° Northwest 322 371 17,600 1,980 Climbing FAA TRACON SMA TRACON (SMA)
12:03PM 38.6603 -85.9556 337° Northwest 321 369 18,200 2,220 Climbing FAA TRACON SMA TRACON (SMA)
12:03PM 38.6931 -85.9711 340° North 324 373 19,100 2,220 Climbing FAA TRACON SMA TRACON (SMA)
12:04PM 38.7189 -85.9847 338° Northwest 326 375 19,700 2,100 Climbing FAA TRACON SMA TRACON (SMA)
12:04PM 38.7533 -85.9939 348° North 331 381 20,500 1,860 Climbing FAA TRACON SMA TRACON (SMA)
12:04PM 38.7831 -85.9869 10° North 346 398 21,000 1,500 Climbing FAA TRACON SMA TRACON (SMA)
12:05PM 38.8106 -85.9681 28° Northeast 359 413 21,500 1,320 Climbing FAA TRACON SMA TRACON (SMA)
12:05PM 38.8392 -85.9339 43° Northeast 368 423 21,900 720 Climbing FAA TRACON SMA TRACON (SMA)
12:05PM 38.8628 -85.9039 45° Northeast 380 437 22,000 120 Climbing FAA TRACON SMA TRACON (SMA)
12:06PM 38.8864 -85.8747 44° Northeast 385 443 22,000  Level FAA TRACON SMA TRACON (SMA)
12:06PM 38.9097 -85.8450 45° Northeast 387 445 22,000  Level FAA TRACON SMA TRACON (SMA)
12:06PM 38.9389 -85.8067 46° Northeast 389 448 22,000  Level FAA TRACON SMA TRACON (SMA)
12:07PM 38.9622 -85.7772 44° Northeast 387 445 22,000  Level FAA TRACON SMA TRACON (SMA)
12:07PM 38.9856 -85.7475 45° Northeast 384 442 22,000  Level FAA TRACON SMA TRACON (SMA)
12:08PM 39.0378 -85.6803 45° Northeast 385 443 22,000  Level FAA TRACON SMA TRACON (SMA)
12:08PM 39.0667 -85.6425 45° Northeast 384 442 22,000  Level FAA TRACON SMA TRACON (SMA)
12:08PM 39.0897 -85.6136 44° Northeast 381 438 22,000  Level FAA TRACON SMA TRACON (SMA)
12:09PM 39.1125 -85.5833 46° Northeast 381 438 22,000  Level FAA TRACON SMA TRACON (SMA)
12:09PM 39.1414 -85.5464 45° Northeast 380 437 22,000  Level FAA TRACON SMA TRACON (SMA)
12:09PM 39.1642 -85.5183 44° Northeast 378 435 22,000  Level FAA TRACON SMA TRACON (SMA)
12:10PM 39.1789 -85.4967 49° Northeast 381 438 22,000  Level Indianapolis Center
12:11PM 39.2547 -85.4008 44° Northeast 379 436 22,000  Level Indianapolis Center
12:12PM 39.3278 -85.3039 46° Northeast 375 432 22,000  Level Indianapolis Center
12:13PM 39.4011 -85.2061 46° Northeast 375 432 22,000  Level Indianapolis Center
12:14PM 39.4867 -85.0939 45° Northeast 372 428 22,000  Level Indianapolis Center
12:15PM 39.5606 -84.9972 45° Northeast 374 430 22,000  Level Indianapolis Center
12:16PM 39.6361 -84.9006 45° Northeast 377 434 22,000  Level Indianapolis Center
12:17PM 39.7103 -84.8025 45° Northeast 377 434 22,000  Level Indianapolis Center
12:18PM 39.7836 -84.7039 46° Northeast 377 434 22,000  Level Indianapolis Center
12:19PM 39.8603 -84.6061 44° Northeast 380 437 22,000  Level Indianapolis Center
12:20PM 39.9350 -84.5075 45° Northeast 379 436 22,000  Level Indianapolis Center
12:21PM 40.0144 -84.4164 41° Northeast 380 437 22,000  Level Indianapolis Center
12:22PM 40.1136 -84.4003 North 361 415 22,000  Level Indianapolis Center
12:23PM 40.2139 -84.4017 359° North 356 410 22,000  Level Indianapolis Center
12:24PM 40.3147 -84.4042 359° North 357 411 22,000  Level Indianapolis Center
12:25PM 40.4150 -84.4069 359° North 356 410 22,000  Level Indianapolis Center
12:26PM 40.5314 -84.4103 359° North 355 409 22,000  Level Indianapolis Center
12:27PM 40.6311 -84.4128 359° North 355 409 22,000  Level Indianapolis Center
12:28PM 40.7317 -84.4161 359° North 357 411 22,000  Level Indianapolis Center
12:29PM 40.8336 -84.4178 359° North 360 414 22,000  Level Indianapolis Center
12:30PM 40.9356 -84.4194 359° North 361 415 22,000  Level Indianapolis Center
12:31PM 41.0358 -84.4225 359° North 359 413 22,000 -240 Level Indianapolis Center
12:32PM 41.1364 -84.4261 358° North 359 413 21,600 -1,140 Descending Indianapolis Center
12:33PM 41.2358 -84.4275 359° North 355 409 19,700 -1,980 Descending Indianapolis Center
12:34PM 41.2808 -84.4192 North 339 390 18,800 -1,980 Descending FAA TRACON SMA TRACON (SMA)
12:34PM 41.2953 -84.4003 44° Northeast 341 392 18,300 -1,800 Descending FAA TRACON SMA TRACON (SMA)
12:34PM 41.3306 -84.3764 27° Northeast 368 423 17,600 -2,100 Descending FAA TRACON SMA TRACON (SMA)
12:35PM 41.3633 -84.3514 30° Northeast 336 387 16,900 -1,800 Descending FAA TRACON SMA TRACON (SMA)
12:35PM 41.3806 -84.3406 25° Northeast 338 389 16,400 -1,860 Descending FAA TRACON SMA TRACON (SMA)
12:35PM 41.4144 -84.3219 22° Northeast 318 366 15,700 -2,100 Descending FAA TRACON SMA TRACON (SMA)
12:36PM 41.4467 -84.2972 30° Northeast 336 387 15,000 -1,680 Descending FAA TRACON SMA TRACON (SMA)
12:36PM 41.4653 -84.2853 26° Northeast 370 426 14,600 -1,800 Descending FAA TRACON SMA TRACON (SMA)
12:36PM 41.5050 -84.2600 25° Northeast 351 404 13,800 -2,280 Descending FAA TRACON SMA TRACON (SMA)
12:37PM 41.5381 -84.2364 28° Northeast 349 402 13,100 -1,740 Descending FAA TRACON SMA TRACON (SMA)
12:37PM 41.5642 -84.2189 27° Northeast 345 397 12,700 -1,260 Descending FAA TRACON SMA TRACON (SMA)
12:37PM 41.5897 -84.2011 27° Northeast 342 394 12,300 -1,080 Descending FAA TRACON SMA TRACON (SMA)
12:38PM 41.6156 -84.1844 26° Northeast 336 387 12,000 -480 Descending FAA TRACON SMA TRACON (SMA)
12:38PM 41.6472 -84.1628 27° Northeast 335 386 12,000  Level FAA TRACON SMA TRACON (SMA)
12:38PM 41.6736 -84.1447 27° Northeast 342 394 12,000  Level FAA TRACON SMA TRACON (SMA)
12:39PM 41.7011 -84.1256 27° Northeast 355 409 12,000  Level FAA TRACON SMA TRACON (SMA)
12:39PM 41.7364 -84.1019 27° Northeast 365 420 12,000  Level FAA TRACON SMA TRACON (SMA)
12:39PM 41.7642 -84.0831 27° Northeast 365 420 12,000  Level FAA TRACON SMA TRACON (SMA)
12:40PM 41.7922 -84.0642 27° Northeast 364 419 12,000  Level FAA TRACON SMA TRACON (SMA)
12:40PM 41.8247 -84.0356 33° Northeast 372 428 12,000  Level FAA TRACON SMA TRACON (SMA)
12:40PM 41.8464 -84.0050 46° Northeast 366 421 12,000  Level FAA TRACON SMA TRACON (SMA)
12:41PM 41.8658 -83.9714 52° Northeast 375 432 12,000  Level FAA TRACON SMA TRACON (SMA)
12:41PM 41.8914 -83.9314 49° Northeast 369 425 12,000  Level FAA TRACON SMA TRACON (SMA)
12:41PM 41.9133 -83.9014 45° Northeast 366 421 12,000  Level FAA TRACON SMA TRACON (SMA)
12:42PM 41.9408 -83.8633 46° Northeast 367 422 12,000  Level FAA TRACON SMA TRACON (SMA)
12:42PM 41.9625 -83.8328 46° Northeast 368 423 12,000  Level FAA TRACON SMA TRACON (SMA)
12:42PM 41.9844 -83.8025 46° Northeast 368 423 12,000  Level FAA TRACON SMA TRACON (SMA)
12:43PM 42.0064 -83.7717 46° Northeast 368 423 12,000  Level FAA TRACON SMA TRACON (SMA)
12:43PM 42.0336 -83.7336 46° Northeast 368 423 12,000  Level FAA TRACON SMA TRACON (SMA)
12:43PM 42.0553 -83.7028 47° Northeast 368 423 12,000  Level FAA TRACON SMA TRACON (SMA)
12:44PM 42.0772 -83.6722 46° Northeast 368 423 12,000 -180 Level FAA TRACON SMA TRACON (SMA)
12:44PM 42.1036 -83.6350 46° Northeast 354 407 11,900 -180 Descending FAA TRACON SMA TRACON (SMA)
12:44PM 42.1219 -83.6089 47° Northeast 317 365 11,900 120 Level FAA TRACON SMA TRACON (SMA)
12:45PM 42.1392 -83.5842 47° Northeast 289 333 12,000 120 Climbing FAA TRACON SMA TRACON (SMA)
12:45PM 42.1622 -83.5597 38° Northeast 269 310 12,000 -180 Level FAA TRACON SMA TRACON (SMA)
12:45PM 42.1822 -83.5453 28° Northeast 269 310 11,900  Descending FAA TRACON SMA TRACON (SMA)
12:46PM 42.2019 -83.5308 28° Northeast 261 300 12,000  Climbing FAA TRACON SMA TRACON (SMA)
12:46PM 42.2264 -83.5133 28° Northeast 257 296 11,900 -780 Descending FAA TRACON SMA TRACON (SMA)
12:46PM 42.2458 -83.4989 29° Northeast 258 297 11,500 -1,380 Descending FAA TRACON SMA TRACON (SMA)
12:47PM 42.2656 -83.4844 28° Northeast 258 297 11,000 -1,800 Descending FAA TRACON SMA TRACON (SMA)
12:47PM 42.2903 -83.4672 27° Northeast 258 297 10,300 -1,680 Descending FAA TRACON SMA TRACON (SMA)
12:47PM 42.3100 -83.4533 28° Northeast 257 296 9,900 -1,560 Descending FAA TRACON SMA TRACON (SMA)
12:48PM 42.3344 -83.4364 27° Northeast 253 291 9,200 -1,860 Descending FAA TRACON SMA TRACON (SMA)
12:48PM 42.3536 -83.4233 27° Northeast 252 290 8,600 -2,040 Descending FAA TRACON SMA TRACON (SMA)
12:48PM 42.3728 -83.4103 27° Northeast 250 288 8,000 -2,040 Descending FAA TRACON SMA TRACON (SMA)
12:49PM 42.3917 -83.3975 27° Northeast 248 285 7,400 -1,800 Descending FAA TRACON SMA TRACON (SMA)
12:49PM 42.4108 -83.3844 27° Northeast 248 285 6,800 -1,920 Descending FAA TRACON SMA TRACON (SMA)
12:49PM 42.4303 -83.3619 40° Northeast 237 273 6,100 -1,800 Descending FAA TRACON SMA TRACON (SMA)
12:50PM 42.4214 -83.3111 103° East 243 280 5,000 -1,740 Descending FAA TRACON SMA TRACON (SMA)
12:50PM 42.4036 -83.2894 138° Southeast 226 260 4,400 -1,500 Descending FAA TRACON SMA TRACON (SMA)
12:51PM 42.3856 -83.2875 175° South 209 241 4,000 -1,500 Descending FAA TRACON SMA TRACON (SMA)
12:51PM 42.3642 -83.2867 178° South 208 239 3,400 -1,380 Descending FAA TRACON SMA TRACON (SMA)
12:51PM 42.3444 -83.2878 182° South 202 232 3,100 -600 Descending FAA TRACON SMA TRACON (SMA)
12:52PM 42.3292 -83.2922 192° South 194 223 3,000 -600 Descending FAA TRACON SMA TRACON (SMA)
12:52PM 42.3122 -83.3033 206° Southwest 178 205 2,700 -900 Descending FAA TRACON SMA TRACON (SMA)
12:52PM 42.2994 -83.3122 207° Southwest 146 168 2,400 -780 Descending FAA TRACON SMA TRACON (SMA)
12:53PM 42.2903 -83.3192 209° Southwest 130 150 2,200 -780 Descending FAA TRACON SMA TRACON (SMA)
12:53PM 42.2800 -83.3281 213° Southwest 125 144 1,900 -780 Descending FAA TRACON SMA TRACON (SMA)
12:53PM 42.2697 -83.3342 204° Southwest 123 142 1,700 -600 Descending FAA TRACON SMA TRACON (SMA)
12:54PM 42.2592 -83.3419 209° Southwest 122 140 1,500 -780 Descending FAA TRACON SMA TRACON (SMA)
12:54PM 42.2483 -83.3500 209° Southwest 121 139 1,200 -780 Descending FAA TRACON SMA TRACON (SMA)
12:54PM 42.2392 -83.3567 208° Southwest 128 147 1,000 -600 Descending FAA TRACON SMA TRACON (SMA)